sensor_id;sensor_type;location;lat;lon;timestamp;temperature;humidity
16174;DHT22;14031;50.158;8.626;2023-05-24T00:06:27;14.40;99.90
16174;DHT22;14031;50.158;8.626;2023-05-24T00:08:54;14.40;99.90
16174;DHT22;14031;50.158;8.626;2023-05-24T00:11:21;14.40;99.90
16174;DHT22;14031;50.158;8.626;2023-05-24T00:13:48;14.40;99.90
16174;DHT22;14031;50.158;8.626;2023-05-24T00:16:15;14.40;99.90
16174;DHT22;14031;50.158;8.626;2023-05-24T00:18:42;14.30;99.90
16174;DHT22;14031;50.158;8.626;2023-05-24T00:21:11;14.30;99.90
16174;DHT22;14031;50.158;8.626;2023-05-24T00:23:40;14.30;99.90
16174;DHT22;14031;50.158;8.626;2023-05-24T00:26:08;14.20;99.90
16174;DHT22;14031;50.158;8.626;2023-05-24T00:28:35;14.20;99.90
16174;DHT22;14031;50.158;8.626;2023-05-24T00:34:18;14.10;99.90
16174;DHT22;14031;50.158;8.626;2023-05-24T00:37:15;14.00;99.90
16174;DHT22;14031;50.158;8.626;2023-05-24T00:39:44;14.00;99.90
16174;DHT22;14031;50.158;8.626;2023-05-24T00:42:10;14.00;99.90
16174;DHT22;14031;50.158;8.626;2023-05-24T00:44:37;14.00;99.90
16174;DHT22;14031;50.158;8.626;2023-05-24T00:47:04;14.10;99.90
16174;DHT22;14031;50.158;8.626;2023-05-24T00:49:31;13.90;99.90
16174;DHT22;14031;50.158;8.626;2023-05-24T00:51:58;13.90;99.90
16174;DHT22;14031;50.158;8.626;2023-05-24T00:54:26;13.80;99.90
16174;DHT22;14031;50.158;8.626;2023-05-24T00:56:55;13.80;99.90
16174;DHT22;14031;50.158;8.626;2023-05-24T00:59:22;13.80;99.90
16174;DHT22;14031;50.158;8.626;2023-05-24T01:01:49;13.70;99.90
16174;DHT22;14031;50.158;8.626;2023-05-24T01:04:16;13.70;99.90
16174;DHT22;14031;50.158;8.626;2023-05-24T01:06:54;13.70;99.90
16174;DHT22;14031;50.158;8.626;2023-05-24T01:09:29;13.70;99.90
16174;DHT22;14031;50.158;8.626;2023-05-24T01:12:10;13.60;99.90
16174;DHT22;14031;50.158;8.626;2023-05-24T01:14:46;13.60;99.90
16174;DHT22;14031;50.158;8.626;2023-05-24T01:17:22;13.60;99.90
16174;DHT22;14031;50.158;8.626;2023-05-24T01:19:55;13.60;99.90
16174;DHT22;14031;50.158;8.626;2023-05-24T01:22:44;13.50;99.90
16174;DHT22;14031;50.158;8.626;2023-05-24T01:25:22;13.50;99.90
16174;DHT22;14031;50.158;8.626;2023-05-24T01:27:54;13.40;99.90
16174;DHT22;14031;50.158;8.626;2023-05-24T01:30:22;13.40;99.90
16174;DHT22;14031;50.158;8.626;2023-05-24T01:32:49;13.30;99.90
16174;DHT22;14031;50.158;8.626;2023-05-24T01:35:16;13.30;99.90
16174;DHT22;14031;50.158;8.626;2023-05-24T01:37:42;13.30;99.90
16174;DHT22;14031;50.158;8.626;2023-05-24T01:40:10;13.30;99.90
16174;DHT22;14031;50.158;8.626;2023-05-24T01:42:44;13.40;99.90
16174;DHT22;14031;50.158;8.626;2023-05-24T01:45:16;13.40;99.90
16174;DHT22;14031;50.158;8.626;2023-05-24T01:47:57;13.40;99.90
16174;DHT22;14031;50.158;8.626;2023-05-24T01:50:31;13.30;99.90
16174;DHT22;14031;50.158;8.626;2023-05-24T01:53:02;13.30;99.90
16174;DHT22;14031;50.158;8.626;2023-05-24T01:55:31;13.30;99.90
16174;DHT22;14031;50.158;8.626;2023-05-24T01:58:01;13.30;99.90
16174;DHT22;14031;50.158;8.626;2023-05-24T02:00:30;13.20;99.90
16174;DHT22;14031;50.158;8.626;2023-05-24T02:03:00;13.30;99.90
16174;DHT22;14031;50.158;8.626;2023-05-24T02:05:27;13.30;99.90
16174;DHT22;14031;50.158;8.626;2023-05-24T02:07:54;13.40;99.90
16174;DHT22;14031;50.158;8.626;2023-05-24T02:10:21;13.40;99.90
16174;DHT22;14031;50.158;8.626;2023-05-24T02:12:48;13.40;99.90
16174;DHT22;14031;50.158;8.626;2023-05-24T02:15:14;13.40;99.90
16174;DHT22;14031;50.158;8.626;2023-05-24T02:17:42;13.30;99.90
16174;DHT22;14031;50.158;8.626;2023-05-24T02:20:11;13.30;99.90
16174;DHT22;14031;50.158;8.626;2023-05-24T02:22:38;13.30;99.90
16174;DHT22;14031;50.158;8.626;2023-05-24T02:25:05;13.40;99.90
16174;DHT22;14031;50.158;8.626;2023-05-24T02:27:32;13.20;99.90
16174;DHT22;14031;50.158;8.626;2023-05-24T02:29:59;13.10;99.90
16174;DHT22;14031;50.158;8.626;2023-05-24T02:32:26;13.10;99.90
16174;DHT22;14031;50.158;8.626;2023-05-24T02:34:54;13.00;99.90
16174;DHT22;14031;50.158;8.626;2023-05-24T02:37:23;13.00;99.90
16174;DHT22;14031;50.158;8.626;2023-05-24T02:39:50;13.00;99.90
16174;DHT22;14031;50.158;8.626;2023-05-24T02:42:17;13.00;99.90
16174;DHT22;14031;50.158;8.626;2023-05-24T02:44:44;13.00;99.90
16174;DHT22;14031;50.158;8.626;2023-05-24T02:47:12;12.90;99.90
16174;DHT22;14031;50.158;8.626;2023-05-24T02:49:39;12.90;99.90
16174;DHT22;14031;50.158;8.626;2023-05-24T02:52:07;12.80;99.90
16174;DHT22;14031;50.158;8.626;2023-05-24T02:54:34;12.80;99.90
16174;DHT22;14031;50.158;8.626;2023-05-24T02:57:01;12.80;99.90
16174;DHT22;14031;50.158;8.626;2023-05-24T02:59:28;12.80;99.90
16174;DHT22;14031;50.158;8.626;2023-05-24T03:01:55;12.70;99.90
16174;DHT22;14031;50.158;8.626;2023-05-24T03:04:22;12.70;99.90
16174;DHT22;14031;50.158;8.626;2023-05-24T03:06:49;12.70;99.90
16174;DHT22;14031;50.158;8.626;2023-05-24T03:09:17;12.80;99.90
16174;DHT22;14031;50.158;8.626;2023-05-24T03:11:43;12.60;99.90
16174;DHT22;14031;50.158;8.626;2023-05-24T03:14:10;12.70;99.90
16174;DHT22;14031;50.158;8.626;2023-05-24T03:16:37;12.60;99.90
16174;DHT22;14031;50.158;8.626;2023-05-24T03:19:04;12.60;99.90
16174;DHT22;14031;50.158;8.626;2023-05-24T03:21:31;12.60;99.90
16174;DHT22;14031;50.158;8.626;2023-05-24T03:23:57;12.50;99.90
16174;DHT22;14031;50.158;8.626;2023-05-24T03:26:25;12.40;99.90
16174;DHT22;14031;50.158;8.626;2023-05-24T03:28:52;12.40;99.90
16174;DHT22;14031;50.158;8.626;2023-05-24T03:31:21;12.30;99.90
16174;DHT22;14031;50.158;8.626;2023-05-24T03:33:48;12.20;99.90
16174;DHT22;14031;50.158;8.626;2023-05-24T03:36:15;12.20;99.90
16174;DHT22;14031;50.158;8.626;2023-05-24T03:38:42;12.10;99.90
16174;DHT22;14031;50.158;8.626;2023-05-24T03:41:09;12.10;99.90
16174;DHT22;14031;50.158;8.626;2023-05-24T03:43:37;12.10;99.90
16174;DHT22;14031;50.158;8.626;2023-05-24T03:46:04;12.10;99.90
16174;DHT22;14031;50.158;8.626;2023-05-24T03:48:31;12.00;99.90
16174;DHT22;14031;50.158;8.626;2023-05-24T03:50:57;12.00;99.90
16174;DHT22;14031;50.158;8.626;2023-05-24T03:53:24;12.00;99.90
16174;DHT22;14031;50.158;8.626;2023-05-24T03:55:51;11.90;99.90
16174;DHT22;14031;50.158;8.626;2023-05-24T03:58:18;12.00;99.90
16174;DHT22;14031;50.158;8.626;2023-05-24T04:00:46;12.00;99.90
16174;DHT22;14031;50.158;8.626;2023-05-24T04:03:12;12.00;99.90
16174;DHT22;14031;50.158;8.626;2023-05-24T04:05:39;12.00;99.90
16174;DHT22;14031;50.158;8.626;2023-05-24T04:08:06;12.00;99.90
16174;DHT22;14031;50.158;8.626;2023-05-24T04:10:33;12.00;99.90
16174;DHT22;14031;50.158;8.626;2023-05-24T04:12:59;11.90;99.90
16174;DHT22;14031;50.158;8.626;2023-05-24T04:15:26;12.00;99.90
16174;DHT22;14031;50.158;8.626;2023-05-24T04:17:54;12.00;99.90
16174;DHT22;14031;50.158;8.626;2023-05-24T04:20:22;11.90;99.90
16174;DHT22;14031;50.158;8.626;2023-05-24T04:22:49;12.00;99.90
16174;DHT22;14031;50.158;8.626;2023-05-24T04:25:16;12.00;99.90
16174;DHT22;14031;50.158;8.626;2023-05-24T04:27:43;12.00;99.90
16174;DHT22;14031;50.158;8.626;2023-05-24T04:30:16;12.10;99.90
16174;DHT22;14031;50.158;8.626;2023-05-24T04:32:45;12.10;99.90
16174;DHT22;14031;50.158;8.626;2023-05-24T04:35:14;12.00;99.90
16174;DHT22;14031;50.158;8.626;2023-05-24T04:37:41;11.90;99.90
16174;DHT22;14031;50.158;8.626;2023-05-24T04:40:11;12.10;99.90
16174;DHT22;14031;50.158;8.626;2023-05-24T04:42:38;12.00;99.90
16174;DHT22;14031;50.158;8.626;2023-05-24T04:45:06;12.00;99.90
16174;DHT22;14031;50.158;8.626;2023-05-24T04:47:32;12.00;99.90
16174;DHT22;14031;50.158;8.626;2023-05-24T04:50:00;12.00;99.90
16174;DHT22;14031;50.158;8.626;2023-05-24T04:52:28;12.00;99.90
16174;DHT22;14031;50.158;8.626;2023-05-24T04:54:55;12.00;99.90
16174;DHT22;14031;50.158;8.626;2023-05-24T04:57:22;12.00;99.90
16174;DHT22;14031;50.158;8.626;2023-05-24T04:59:49;12.10;99.90
16174;DHT22;14031;50.158;8.626;2023-05-24T05:02:18;12.00;99.90
16174;DHT22;14031;50.158;8.626;2023-05-24T05:04:44;12.10;99.90
16174;DHT22;14031;50.158;8.626;2023-05-24T05:07:11;12.10;99.90
16174;DHT22;14031;50.158;8.626;2023-05-24T05:09:39;12.10;99.90
16174;DHT22;14031;50.158;8.626;2023-05-24T05:12:06;12.20;99.90
16174;DHT22;14031;50.158;8.626;2023-05-24T05:14:33;12.20;99.90
16174;DHT22;14031;50.158;8.626;2023-05-24T05:17:00;12.20;99.90
16174;DHT22;14031;50.158;8.626;2023-05-24T05:19:27;12.10;99.90
16174;DHT22;14031;50.158;8.626;2023-05-24T05:21:53;12.10;99.90
16174;DHT22;14031;50.158;8.626;2023-05-24T05:24:20;12.10;99.90
16174;DHT22;14031;50.158;8.626;2023-05-24T05:26:48;12.00;99.90
16174;DHT22;14031;50.158;8.626;2023-05-24T05:29:17;12.00;99.90
16174;DHT22;14031;50.158;8.626;2023-05-24T05:31:44;12.00;99.90
16174;DHT22;14031;50.158;8.626;2023-05-24T05:34:11;11.80;99.90
16174;DHT22;14031;50.158;8.626;2023-05-24T05:36:38;12.00;99.90
16174;DHT22;14031;50.158;8.626;2023-05-24T05:39:05;12.10;99.90
16174;DHT22;14031;50.158;8.626;2023-05-24T05:41:35;12.20;99.90
16174;DHT22;14031;50.158;8.626;2023-05-24T05:44:04;12.20;99.90
16174;DHT22;14031;50.158;8.626;2023-05-24T05:46:31;12.20;99.90
16174;DHT22;14031;50.158;8.626;2023-05-24T05:48:57;12.20;99.90
16174;DHT22;14031;50.158;8.626;2023-05-24T05:51:24;12.30;99.90
16174;DHT22;14031;50.158;8.626;2023-05-24T05:53:51;12.30;99.90
16174;DHT22;14031;50.158;8.626;2023-05-24T05:56:18;12.40;99.90
16174;DHT22;14031;50.158;8.626;2023-05-24T05:58:44;12.40;99.90
16174;DHT22;14031;50.158;8.626;2023-05-24T06:01:13;12.40;99.90
16174;DHT22;14031;50.158;8.626;2023-05-24T06:03:40;12.60;99.90
16174;DHT22;14031;50.158;8.626;2023-05-24T06:06:07;12.50;99.90
16174;DHT22;14031;50.158;8.626;2023-05-24T06:08:34;12.60;99.90
16174;DHT22;14031;50.158;8.626;2023-05-24T06:11:01;12.60;99.90
16174;DHT22;14031;50.158;8.626;2023-05-24T06:13:28;12.70;99.90
16174;DHT22;14031;50.158;8.626;2023-05-24T06:15:55;12.70;99.90
16174;DHT22;14031;50.158;8.626;2023-05-24T06:18:24;12.70;99.90
16174;DHT22;14031;50.158;8.626;2023-05-24T06:20:52;12.60;99.90
16174;DHT22;14031;50.158;8.626;2023-05-24T06:23:18;12.70;99.90
16174;DHT22;14031;50.158;8.626;2023-05-24T06:25:46;12.60;99.90
16174;DHT22;14031;50.158;8.626;2023-05-24T06:28:12;12.60;99.90
16174;DHT22;14031;50.158;8.626;2023-05-24T06:30:39;12.60;99.90
16174;DHT22;14031;50.158;8.626;2023-05-24T06:33:06;12.60;99.90
16174;DHT22;14031;50.158;8.626;2023-05-24T06:35:34;12.70;99.90
16174;DHT22;14031;50.158;8.626;2023-05-24T06:38:01;12.70;99.90
16174;DHT22;14031;50.158;8.626;2023-05-24T06:40:28;12.70;99.90
16174;DHT22;14031;50.158;8.626;2023-05-24T06:42:54;12.80;99.90
16174;DHT22;14031;50.158;8.626;2023-05-24T06:45:23;12.80;99.90
16174;DHT22;14031;50.158;8.626;2023-05-24T06:47:49;12.90;99.90
16174;DHT22;14031;50.158;8.626;2023-05-24T06:50:16;13.00;99.90
16174;DHT22;14031;50.158;8.626;2023-05-24T06:52:44;13.10;99.90
16174;DHT22;14031;50.158;8.626;2023-05-24T06:55:11;13.10;99.90
16174;DHT22;14031;50.158;8.626;2023-05-24T06:57:38;13.10;99.90
16174;DHT22;14031;50.158;8.626;2023-05-24T07:00:06;13.10;99.90
16174;DHT22;14031;50.158;8.626;2023-05-24T07:02:36;13.20;99.90
16174;DHT22;14031;50.158;8.626;2023-05-24T07:05:03;13.30;99.90
16174;DHT22;14031;50.158;8.626;2023-05-24T07:07:30;13.30;99.90
16174;DHT22;14031;50.158;8.626;2023-05-24T07:09:59;13.40;99.90
16174;DHT22;14031;50.158;8.626;2023-05-24T07:12:26;13.50;99.90
16174;DHT22;14031;50.158;8.626;2023-05-24T07:14:53;13.60;99.90
16174;DHT22;14031;50.158;8.626;2023-05-24T07:17:20;13.70;99.90
16174;DHT22;14031;50.158;8.626;2023-05-24T07:19:47;13.90;99.90
16174;DHT22;14031;50.158;8.626;2023-05-24T07:22:14;14.00;99.90
16174;DHT22;14031;50.158;8.626;2023-05-24T07:24:40;14.10;99.90
16174;DHT22;14031;50.158;8.626;2023-05-24T07:27:09;14.20;99.90
16174;DHT22;14031;50.158;8.626;2023-05-24T07:29:36;14.30;99.90
16174;DHT22;14031;50.158;8.626;2023-05-24T07:32:03;14.40;99.90
16174;DHT22;14031;50.158;8.626;2023-05-24T07:34:30;14.40;99.90
16174;DHT22;14031;50.158;8.626;2023-05-24T07:36:57;14.50;99.90
16174;DHT22;14031;50.158;8.626;2023-05-24T07:39:25;14.70;99.90
16174;DHT22;14031;50.158;8.626;2023-05-24T07:41:52;14.70;99.90
16174;DHT22;14031;50.158;8.626;2023-05-24T07:44:20;14.70;99.90
16174;DHT22;14031;50.158;8.626;2023-05-24T07:46:48;14.60;99.90
16174;DHT22;14031;50.158;8.626;2023-05-24T07:49:15;14.60;99.90
16174;DHT22;14031;50.158;8.626;2023-05-24T07:51:41;14.70;99.90
16174;DHT22;14031;50.158;8.626;2023-05-24T07:54:08;14.90;99.90
16174;DHT22;14031;50.158;8.626;2023-05-24T07:56:35;15.10;99.90
16174;DHT22;14031;50.158;8.626;2023-05-24T07:59:02;15.20;99.90
16174;DHT22;14031;50.158;8.626;2023-05-24T08:01:31;15.30;99.90
16174;DHT22;14031;50.158;8.626;2023-05-24T08:03:58;15.30;99.90
16174;DHT22;14031;50.158;8.626;2023-05-24T08:06:25;15.20;99.90
16174;DHT22;14031;50.158;8.626;2023-05-24T08:08:53;15.00;99.90
16174;DHT22;14031;50.158;8.626;2023-05-24T08:11:20;14.80;99.90
16174;DHT22;14031;50.158;8.626;2023-05-24T08:13:47;14.50;99.90
16174;DHT22;14031;50.158;8.626;2023-05-24T08:16:14;14.30;99.90
16174;DHT22;14031;50.158;8.626;2023-05-24T08:18:42;14.00;99.90
16174;DHT22;14031;50.158;8.626;2023-05-24T08:21:09;13.90;99.90
16174;DHT22;14031;50.158;8.626;2023-05-24T08:23:36;13.90;99.90
16174;DHT22;14031;50.158;8.626;2023-05-24T08:26:03;13.90;99.90
16174;DHT22;14031;50.158;8.626;2023-05-24T08:28:29;13.90;99.90
16174;DHT22;14031;50.158;8.626;2023-05-24T08:30:57;13.90;99.90
16174;DHT22;14031;50.158;8.626;2023-05-24T08:33:24;14.00;99.90
16174;DHT22;14031;50.158;8.626;2023-05-24T08:35:52;14.00;99.90
16174;DHT22;14031;50.158;8.626;2023-05-24T08:38:19;14.10;99.90
16174;DHT22;14031;50.158;8.626;2023-05-24T08:40:47;14.20;99.90
16174;DHT22;14031;50.158;8.626;2023-05-24T08:43:14;14.30;99.90
16174;DHT22;14031;50.158;8.626;2023-05-24T08:45:41;14.40;99.90
16174;DHT22;14031;50.158;8.626;2023-05-24T08:48:08;14.50;99.90
16174;DHT22;14031;50.158;8.626;2023-05-24T08:50:38;14.70;99.90
16174;DHT22;14031;50.158;8.626;2023-05-24T08:53:08;14.70;99.90
16174;DHT22;14031;50.158;8.626;2023-05-24T08:55:36;14.90;99.90
16174;DHT22;14031;50.158;8.626;2023-05-24T08:58:05;15.00;99.90
16174;DHT22;14031;50.158;8.626;2023-05-24T09:00:33;15.20;99.90
16174;DHT22;14031;50.158;8.626;2023-05-24T09:03:01;15.30;99.90
16174;DHT22;14031;50.158;8.626;2023-05-24T09:05:28;15.30;99.90
16174;DHT22;14031;50.158;8.626;2023-05-24T09:07:55;15.40;99.90
16174;DHT22;14031;50.158;8.626;2023-05-24T09:10:28;15.40;99.90
16174;DHT22;14031;50.158;8.626;2023-05-24T09:12:56;15.30;99.90
16174;DHT22;14031;50.158;8.626;2023-05-24T09:15:25;15.30;99.90
16174;DHT22;14031;50.158;8.626;2023-05-24T09:17:53;15.30;99.90
16174;DHT22;14031;50.158;8.626;2023-05-24T09:20:20;15.40;99.90
16174;DHT22;14031;50.158;8.626;2023-05-24T09:22:50;15.50;99.90
16174;DHT22;14031;50.158;8.626;2023-05-24T09:25:18;15.60;99.90
16174;DHT22;14031;50.158;8.626;2023-05-24T09:27:50;15.70;99.90
16174;DHT22;14031;50.158;8.626;2023-05-24T09:30:17;16.00;99.90
16174;DHT22;14031;50.158;8.626;2023-05-24T09:32:54;15.80;99.90
16174;DHT22;14031;50.158;8.626;2023-05-24T09:35:22;15.80;99.90
16174;DHT22;14031;50.158;8.626;2023-05-24T09:37:49;15.90;99.90
16174;DHT22;14031;50.158;8.626;2023-05-24T09:40:17;16.00;99.90
16174;DHT22;14031;50.158;8.626;2023-05-24T09:42:45;16.20;99.90
16174;DHT22;14031;50.158;8.626;2023-05-24T09:45:15;16.20;99.90
16174;DHT22;14031;50.158;8.626;2023-05-24T09:47:43;16.00;99.90
16174;DHT22;14031;50.158;8.626;2023-05-24T09:50:12;16.10;99.90
16174;DHT22;14031;50.158;8.626;2023-05-24T09:52:40;16.20;99.90
16174;DHT22;14031;50.158;8.626;2023-05-24T09:55:11;16.30;99.90
16174;DHT22;14031;50.158;8.626;2023-05-24T09:57:38;16.40;99.90
16174;DHT22;14031;50.158;8.626;2023-05-24T10:00:06;16.50;99.90
16174;DHT22;14031;50.158;8.626;2023-05-24T10:02:43;16.70;99.90
16174;DHT22;14031;50.158;8.626;2023-05-24T10:05:11;16.80;99.90
16174;DHT22;14031;50.158;8.626;2023-05-24T10:07:39;16.90;99.90
16174;DHT22;14031;50.158;8.626;2023-05-24T10:10:08;17.10;99.90
16174;DHT22;14031;50.158;8.626;2023-05-24T10:12:35;17.30;99.90
16174;DHT22;14031;50.158;8.626;2023-05-24T10:15:09;17.60;99.90
16174;DHT22;14031;50.158;8.626;2023-05-24T10:17:36;17.90;99.90
16174;DHT22;14031;50.158;8.626;2023-05-24T10:20:05;18.10;99.90
16174;DHT22;14031;50.158;8.626;2023-05-24T10:22:50;18.30;99.90
16174;DHT22;14031;50.158;8.626;2023-05-24T10:25:20;18.50;99.90
16174;DHT22;14031;50.158;8.626;2023-05-24T10:27:53;18.60;99.90
16174;DHT22;14031;50.158;8.626;2023-05-24T10:30:25;18.70;99.90
16174;DHT22;14031;50.158;8.626;2023-05-24T10:32:55;18.60;99.90
16174;DHT22;14031;50.158;8.626;2023-05-24T10:35:24;18.90;99.90
16174;DHT22;14031;50.158;8.626;2023-05-24T10:37:53;19.10;99.90
16174;DHT22;14031;50.158;8.626;2023-05-24T10:40:23;19.30;99.90
16174;DHT22;14031;50.158;8.626;2023-05-24T10:42:52;19.30;99.90
16174;DHT22;14031;50.158;8.626;2023-05-24T10:45:33;19.30;99.90
16174;DHT22;14031;50.158;8.626;2023-05-24T10:48:07;19.50;99.90
16174;DHT22;14031;50.158;8.626;2023-05-24T10:50:38;19.60;99.90
16174;DHT22;14031;50.158;8.626;2023-05-24T10:53:12;19.70;99.90
16174;DHT22;14031;50.158;8.626;2023-05-24T10:55:52;19.30;99.90
16174;DHT22;14031;50.158;8.626;2023-05-24T10:58:26;19.50;99.90
16174;DHT22;14031;50.158;8.626;2023-05-24T11:00:55;19.40;99.90
16174;DHT22;14031;50.158;8.626;2023-05-24T11:10:08;19.00;99.90
16174;DHT22;14031;50.158;8.626;2023-05-24T11:22:27;19.00;99.90
16174;DHT22;14031;50.158;8.626;2023-05-24T11:24:55;18.90;99.90
16174;DHT22;14031;50.158;8.626;2023-05-24T11:27:25;18.90;99.90
16174;DHT22;14031;50.158;8.626;2023-05-24T11:30:06;18.80;99.90
16174;DHT22;14031;50.158;8.626;2023-05-24T11:35:56;18.70;99.90
16174;DHT22;14031;50.158;8.626;2023-05-24T11:38:23;19.00;99.90
16174;DHT22;14031;50.158;8.626;2023-05-24T11:40:52;19.40;99.90
16174;DHT22;14031;50.158;8.626;2023-05-24T11:43:20;19.70;99.90
16174;DHT22;14031;50.158;8.626;2023-05-24T11:45:48;19.70;99.90
16174;DHT22;14031;50.158;8.626;2023-05-24T11:48:15;19.70;99.90
16174;DHT22;14031;50.158;8.626;2023-05-24T11:50:43;19.60;99.90
16174;DHT22;14031;50.158;8.626;2023-05-24T11:53:10;19.60;99.90
16174;DHT22;14031;50.158;8.626;2023-05-24T11:55:38;19.30;99.90
16174;DHT22;14031;50.158;8.626;2023-05-24T11:58:10;19.30;99.90
16174;DHT22;14031;50.158;8.626;2023-05-24T12:00:41;19.60;99.90
16174;DHT22;14031;50.158;8.626;2023-05-24T12:03:08;19.90;99.90
16174;DHT22;14031;50.158;8.626;2023-05-24T12:05:36;20.20;99.90
16174;DHT22;14031;50.158;8.626;2023-05-24T12:08:04;20.30;99.90
16174;DHT22;14031;50.158;8.626;2023-05-24T12:10:32;20.30;99.90
16174;DHT22;14031;50.158;8.626;2023-05-24T12:12:59;20.10;99.90
16174;DHT22;14031;50.158;8.626;2023-05-24T12:15:26;20.10;99.90
16174;DHT22;14031;50.158;8.626;2023-05-24T12:17:54;20.50;99.90
16174;DHT22;14031;50.158;8.626;2023-05-24T12:20:21;20.80;99.90
16174;DHT22;14031;50.158;8.626;2023-05-24T12:22:48;21.10;99.90
16174;DHT22;14031;50.158;8.626;2023-05-24T12:25:16;21.40;99.90
16174;DHT22;14031;50.158;8.626;2023-05-24T12:27:45;21.60;99.90
16174;DHT22;14031;50.158;8.626;2023-05-24T12:30:14;21.70;99.90
16174;DHT22;14031;50.158;8.626;2023-05-24T12:32:45;21.60;99.90
16174;DHT22;14031;50.158;8.626;2023-05-24T12:35:15;21.60;99.90
16174;DHT22;14031;50.158;8.626;2023-05-24T12:37:43;21.50;99.90
16174;DHT22;14031;50.158;8.626;2023-05-24T12:40:16;21.30;99.90
16174;DHT22;14031;50.158;8.626;2023-05-24T12:42:45;21.00;99.90
16174;DHT22;14031;50.158;8.626;2023-05-24T12:45:14;20.80;99.90
16174;DHT22;14031;50.158;8.626;2023-05-24T12:47:48;20.50;99.90
16174;DHT22;14031;50.158;8.626;2023-05-24T12:50:16;20.50;99.90
16174;DHT22;14031;50.158;8.626;2023-05-24T12:52:43;20.70;99.90
16174;DHT22;14031;50.158;8.626;2023-05-24T12:55:11;20.90;99.90
16174;DHT22;14031;50.158;8.626;2023-05-24T12:57:39;21.20;99.90
16174;DHT22;14031;50.158;8.626;2023-05-24T13:00:07;21.40;99.90
16174;DHT22;14031;50.158;8.626;2023-05-24T13:02:35;21.70;99.90
16174;DHT22;14031;50.158;8.626;2023-05-24T13:05:01;22.10;99.90
16174;DHT22;14031;50.158;8.626;2023-05-24T13:07:30;22.40;99.90
16174;DHT22;14031;50.158;8.626;2023-05-24T13:09:57;22.60;99.90
16174;DHT22;14031;50.158;8.626;2023-05-24T13:12:24;22.60;99.10
16174;DHT22;14031;50.158;8.626;2023-05-24T13:14:52;22.60;98.60
16174;DHT22;14031;50.158;8.626;2023-05-24T13:17:19;22.40;99.20
16174;DHT22;14031;50.158;8.626;2023-05-24T13:19:45;22.40;99.40
16174;DHT22;14031;50.158;8.626;2023-05-24T13:22:13;22.60;98.90
16174;DHT22;14031;50.158;8.626;2023-05-24T13:24:41;22.80;97.90
16174;DHT22;14031;50.158;8.626;2023-05-24T13:27:08;23.10;99.00
16174;DHT22;14031;50.158;8.626;2023-05-24T13:29:35;23.40;98.20
16174;DHT22;14031;50.158;8.626;2023-05-24T13:32:02;23.90;98.00
16174;DHT22;14031;50.158;8.626;2023-05-24T13:34:29;24.10;96.00
16174;DHT22;14031;50.158;8.626;2023-05-24T13:36:56;24.40;96.80
16174;DHT22;14031;50.158;8.626;2023-05-24T13:39:24;24.50;94.00
16174;DHT22;14031;50.158;8.626;2023-05-24T13:41:53;24.70;93.80
16174;DHT22;14031;50.158;8.626;2023-05-24T13:44:20;24.30;92.70
16174;DHT22;14031;50.158;8.626;2023-05-24T13:46:47;23.80;93.40
16174;DHT22;14031;50.158;8.626;2023-05-24T13:49:14;23.20;94.00
16174;DHT22;14031;50.158;8.626;2023-05-24T13:51:41;23.00;93.90
16174;DHT22;14031;50.158;8.626;2023-05-24T13:54:08;23.10;93.60
16174;DHT22;14031;50.158;8.626;2023-05-24T13:56:36;23.50;93.50
16174;DHT22;14031;50.158;8.626;2023-05-24T13:59:06;23.90;92.50
16174;DHT22;14031;50.158;8.626;2023-05-24T14:01:33;23.80;91.90
16174;DHT22;14031;50.158;8.626;2023-05-24T14:04:02;23.40;90.60
16174;DHT22;14031;50.158;8.626;2023-05-24T14:06:29;23.10;91.30
16174;DHT22;14031;50.158;8.626;2023-05-24T14:08:56;22.70;92.10
16174;DHT22;14031;50.158;8.626;2023-05-24T14:11:23;22.60;92.80
16174;DHT22;14031;50.158;8.626;2023-05-24T14:13:51;22.60;93.70
16174;DHT22;14031;50.158;8.626;2023-05-24T14:16:19;23.10;93.40
16174;DHT22;14031;50.158;8.626;2023-05-24T14:18:46;23.50;92.20
16174;DHT22;14031;50.158;8.626;2023-05-24T14:21:14;23.70;91.90
16174;DHT22;14031;50.158;8.626;2023-05-24T14:23:41;23.60;92.30
16174;DHT22;14031;50.158;8.626;2023-05-24T14:26:08;23.60;90.50
16174;DHT22;14031;50.158;8.626;2023-05-24T14:28:35;23.70;89.70
16174;DHT22;14031;50.158;8.626;2023-05-24T14:31:01;24.20;90.30
16174;DHT22;14031;50.158;8.626;2023-05-24T14:33:30;24.80;87.50
16174;DHT22;14031;50.158;8.626;2023-05-24T14:35:56;25.10;84.60
16174;DHT22;14031;50.158;8.626;2023-05-24T14:38:23;25.10;83.60
16174;DHT22;14031;50.158;8.626;2023-05-24T14:40:50;24.90;83.90
16174;DHT22;14031;50.158;8.626;2023-05-24T14:43:17;24.60;84.30
16174;DHT22;14031;50.158;8.626;2023-05-24T14:45:44;24.50;86.80
16174;DHT22;14031;50.158;8.626;2023-05-24T14:48:10;24.90;84.20
16174;DHT22;14031;50.158;8.626;2023-05-24T14:50:39;25.30;86.10
16174;DHT22;14031;50.158;8.626;2023-05-24T14:53:07;26.00;85.10
16174;DHT22;14031;50.158;8.626;2023-05-24T14:55:36;26.60;86.70
16174;DHT22;14031;50.158;8.626;2023-05-24T14:58:03;27.00;79.20
16174;DHT22;14031;50.158;8.626;2023-05-24T15:00:30;27.30;75.20
16174;DHT22;14031;50.158;8.626;2023-05-24T15:02:56;27.40;74.20
16174;DHT22;14031;50.158;8.626;2023-05-24T15:05:23;27.50;72.80
16174;DHT22;14031;50.158;8.626;2023-05-24T15:07:51;27.50;71.00
16174;DHT22;14031;50.158;8.626;2023-05-24T15:10:18;27.50;69.30
16174;DHT22;14031;50.158;8.626;2023-05-24T15:12:45;27.50;67.10
16174;DHT22;14031;50.158;8.626;2023-05-24T15:15:13;27.50;66.40
16174;DHT22;14031;50.158;8.626;2023-05-24T15:17:39;27.60;66.90
16174;DHT22;14031;50.158;8.626;2023-05-24T15:20:07;27.20;63.90
16174;DHT22;14031;50.158;8.626;2023-05-24T15:22:33;26.90;66.20
16174;DHT22;14031;50.158;8.626;2023-05-24T15:25:02;26.60;67.10
16174;DHT22;14031;50.158;8.626;2023-05-24T15:27:29;26.70;67.60
16174;DHT22;14031;50.158;8.626;2023-05-24T15:29:56;27.10;68.00
16174;DHT22;14031;50.158;8.626;2023-05-24T15:32:23;27.20;67.00
16174;DHT22;14031;50.158;8.626;2023-05-24T15:34:50;26.90;64.70
16174;DHT22;14031;50.158;8.626;2023-05-24T15:37:17;26.70;64.10
16174;DHT22;14031;50.158;8.626;2023-05-24T15:39:45;26.90;64.90
16174;DHT22;14031;50.158;8.626;2023-05-24T15:42:13;26.90;63.60
16174;DHT22;14031;50.158;8.626;2023-05-24T15:44:40;26.70;63.90
16174;DHT22;14031;50.158;8.626;2023-05-24T15:47:07;26.30;65.30
16174;DHT22;14031;50.158;8.626;2023-05-24T15:49:33;26.10;65.00
16174;DHT22;14031;50.158;8.626;2023-05-24T15:52:00;26.10;66.30
16174;DHT22;14031;50.158;8.626;2023-05-24T15:54:27;26.10;65.80
16174;DHT22;14031;50.158;8.626;2023-05-24T15:56:54;25.80;67.10
16174;DHT22;14031;50.158;8.626;2023-05-24T15:59:22;25.40;68.60
16174;DHT22;14031;50.158;8.626;2023-05-24T16:01:49;25.20;69.40
16174;DHT22;14031;50.158;8.626;2023-05-24T16:04:16;24.90;68.50